sim
Sign-in with your pilot id or email,
or register
Callsign
Passwort

Schedule Details

Flight Number: DLH2011
Departure: Dusseldorf International Airport (EDDL) at 12:25
Arrival: Munich Airport (EDDM) at 13:35
Route: Lufthansa Passenger Schedule. Enter filed route here before submitting Pirep.

Weather Information
Getting current METAR information for EDDL 291450Z 15006KT 9999 FEW014 BKN048 15/12 Q1016 NOSIG
Getting current METAR information for EDDM 291450Z 26010KT 9999 4000SE -RADZ FEW006 SCT011 BKN018 11/10 Q1019 NOSIG

Schedule Frequency

Route Map